AKST,Max TemperatureF,Mean TemperatureF,Min TemperatureF,Max Dew PointF,MeanDew PointF,Min DewpointF,Max Humidity, Mean Humidity, Min Humidity, Max Sea Level PressureIn, Mean Sea Level PressureIn, Min Sea Level PressureIn, Max VisibilityMiles, Mean VisibilityMiles, Min VisibilityMiles, Max Wind SpeedMPH, Mean Wind SpeedMPH, Max Gust SpeedMPH,PrecipitationIn, CloudCover, Events, WindDirDegrees
2011-11-1,28,19,9,21,15,8,0,0,0,30.33,30.17,30.01,10,10,10,14,6,18,0.00,3,,328
2011-11-2,29,18,7,25,18,5,0,0,0,30.38,30.32,30.13,10,9,4,20,5,25,T,7,Snow,101
2011-11-3,24,23,21,19,18,14,0,0,0,30.08,29.51,29.16,10,4,0,33,21,43,0.04,8,Fog-Snow,55
2011-11-4,23,14,4,14,8,0,0,0,0,29.86,29.61,29.24,10,10,10,18,6,22,0.00,3,,333
2011-11-5,20,14,8,7,4,0,0,0,0,29.87,29.58,29.25,10,10,10,23,11,29,0.00,4,,39
2011-11-6,22,15,8,13,6,3,0,0,0,29.73,29.43,29.24,10,10,10,20,9,26,0.00,6,,333
2011-11-7,15,7,-2,6,1,-6,0,0,0,30.09,29.95,29.77,10,10,10,14,3,16,0.00,2,,10
2011-11-8,35,25,15,26,21,8,0,0,0,30.10,29.89,29.29,10,4,0,58,31,63,0.29,8,Fog-Snow,134
2011-11-9,36,30,24,34,30,26,0,0,0,29.01,28.86,28.65,7,4,0,53,32,66,0.15,7,Rain-Snow,176
2011-11-10,33,23,12,31,24,8,0,0,0,29.73,29.16,28.74,10,4,1,37,18,44,T,7,Snow,263
2011-11-11,23,17,11,16,14,11,0,0,0,29.73,29.23,28.75,10,10,9,31,15,40,0.00,6,,51
2011-11-12,22,16,10,12,8,3,0,0,0,29.16,28.87,28.72,10,10,9,29,12,44,0.00,6,Snow,52
2011-11-13,14,10,5,5,1,-4,0,0,0,29.79,29.51,29.18,10,10,10,20,7,23,T,6,,12
2011-11-14,17,10,2,4,-4,-10,0,0,0,30.26,30.06,29.81,10,10,10,24,7,29,0.00,1,,3
2011-11-15,20,11,2,15,6,-2,0,0,0,30.58,30.46,30.28,10,10,10,10,5,14,0.00,3,,331
2011-11-16,16,8,0,11,4,-2,0,0,0,30.64,30.60,30.57,10,10,10,12,6,14,0.00,4,,333
2011-11-17,13,6,-1,7,1,-7,0,0,0,30.65,30.52,30.31,10,10,9,22,10,28,0.01,4,,67
2011-11-18,10,6,1,-8,-9,-10,0,0,0,30.32,30.29,30.24,10,10,10,23,12,32,0.00,6,,60
2011-11-19,16,9,1,-5,-8,-11,0,0,0,30.27,29.95,29.69,10,10,10,28,15,35,0.00,2,,44
2011-11-20,16,9,2,2,-3,-7,0,0,0,29.89,29.80,29.69,10,10,10,30,14,35,0.00,0,,22
2011-11-21,9,-1,-11,0,-9,-19,0,0,0,29.90,29.80,29.75,10,10,10,26,9,33,0.00,2,,339
2011-11-22,-1,-7,-12,-16,-18,-21,0,0,0,29.80,29.70,29.61,10,10,10,10,2,13,0.00,1,,5
2011-11-23,0,-4,-8,-11,-13,-16,0,0,0,29.59,29.51,29.48,10,10,10,10,3,12,0.00,5,,347
2011-11-24,8,-2,-12,-7,-11,-16,0,0,0,29.73,29.58,29.49,10,10,10,25,4,30,0.00,3,,355
2011-11-25,6,-3,-12,-4,-7,-14,0,0,0,30.00,29.88,29.74,10,10,10,16,4,23,0.00,4,,357
2011-11-26,-3,-9,-15,-11,-15,-18,0,0,0,30.00,29.89,29.73,10,10,10,7,2,8,0.00,3,,17
2011-11-27,-6,-12,-17,-13,-16,-20,0,0,0,29.71,29.63,29.58,10,10,10,8,2,10,0.00,1,,352
2011-11-28,0,-8,-16,-7,-13,-19,0,0,0,29.79,29.64,29.57,10,10,10,13,2,14,0.00,4,,16
2011-11-29,-7,-12,-17,-14,-18,-21,0,0,0,29.92,29.86,29.76,10,10,10,8,1,8,0.00,0,,348
2011-11-30,6,-5,-15,-3,-10,-18,0,0,0,29.75,29.65,29.60,10,10,10,17,0,25,0.00,0,,339